createdAt,value
2023-04-16T00:01:47.523Z,10.23
2023-04-16T00:04:15.124Z,9.82
2023-04-16T00:06:42.701Z,7.93
2023-04-16T00:09:10.767Z,10.65
2023-04-16T00:11:38.226Z,10.50
2023-04-16T00:14:05.736Z,6.85
2023-04-16T00:16:33.292Z,9.88
2023-04-16T00:19:00.928Z,8.70
2023-04-16T00:21:28.881Z,10.43
2023-04-16T00:23:56.262Z,13.02
2023-04-16T00:26:23.535Z,13.10
2023-04-16T00:28:51.222Z,11.98
2023-04-16T00:31:18.593Z,12.57
2023-04-16T00:33:45.953Z,10.02
2023-04-16T00:36:13.249Z,15.43
2023-04-16T00:38:40.488Z,8.05
2023-04-16T00:41:07.742Z,11.05
2023-04-16T00:43:35.096Z,11.45
2023-04-16T00:46:08.851Z,11.98
2023-04-16T00:48:39.861Z,12.20
2023-04-16T00:51:09.321Z,10.15
2023-04-16T00:53:37.949Z,9.93
2023-04-16T00:56:07.523Z,14.30
2023-04-16T00:58:35.755Z,16.13
2023-04-16T01:01:03.330Z,10.50
2023-04-16T01:03:51.517Z,12.20
2023-04-16T01:06:19.814Z,19.90
2023-04-16T01:08:48.720Z,9.05
2023-04-16T01:11:16.428Z,19.90
2023-04-16T01:13:43.854Z,15.20
2023-04-16T01:16:14.760Z,10.35
2023-04-16T01:18:42.617Z,13.23
2023-04-16T01:21:11.144Z,13.10
2023-04-16T01:23:39.492Z,9.80
2023-04-16T01:26:06.816Z,10.25
2023-04-16T01:28:35.149Z,13.48
2023-04-16T01:31:02.462Z,12.20
2023-04-16T01:33:56.160Z,10.68
2023-04-16T01:36:23.489Z,11.50
2023-04-16T01:38:50.807Z,9.65
2023-04-16T01:41:18.088Z,14.15
2023-04-16T01:43:45.474Z,12.32
2023-04-16T01:46:24.742Z,11.82
2023-04-16T01:48:54.733Z,13.13
2023-04-16T01:51:22.637Z,10.55
2023-04-16T01:53:51.199Z,11.00
2023-04-16T01:56:19.850Z,13.32
2023-04-16T01:58:53.523Z,11.02
2023-04-16T02:01:21.208Z,12.80
2023-04-16T02:03:49.699Z,11.88
2023-04-16T02:06:17.083Z,10.18
2023-04-16T02:08:44.675Z,9.25
2023-04-16T02:11:11.932Z,10.77
2023-04-16T02:13:40.440Z,11.35
2023-04-16T02:16:08.922Z,10.10
2023-04-16T02:18:55.030Z,10.90
2023-04-16T02:21:24.281Z,14.15
2023-04-16T02:23:53.009Z,10.20
2023-04-16T02:26:26.636Z,11.57
2023-04-16T02:28:56.192Z,12.63
2023-04-16T02:31:28.846Z,14.38
2023-04-16T02:33:57.882Z,15.07
2023-04-16T02:36:25.625Z,10.82
2023-04-16T02:38:55.160Z,11.90
2023-04-16T02:41:22.957Z,12.63
2023-04-16T02:43:50.766Z,13.75
2023-04-16T02:46:18.243Z,16.67
2023-04-16T02:48:45.896Z,13.13
2023-04-16T02:51:13.746Z,19.92
2023-04-16T02:53:45.482Z,16.20
2023-04-16T02:56:13.460Z,13.20
2023-04-16T02:58:40.836Z,11.50
2023-04-16T03:01:08.577Z,19.20
2023-04-16T03:03:36.146Z,14.23
2023-04-16T03:06:03.546Z,16.75
2023-04-16T03:08:30.760Z,16.98
2023-04-16T03:10:58.009Z,20.48
2023-04-16T03:13:25.351Z,15.07
2023-04-16T03:15:52.705Z,18.42
2023-04-16T03:18:20.355Z,18.85
2023-04-16T03:20:54.055Z,22.70
2023-04-16T03:23:21.420Z,13.93
2023-04-16T03:25:48.711Z,17.25
2023-04-16T03:28:18.664Z,16.80
2023-04-16T03:30:55.642Z,18.88
2023-04-16T03:33:22.997Z,20.35
2023-04-16T03:36:00.905Z,19.33
2023-04-16T03:38:31.156Z,23.20
2023-04-16T03:41:05.149Z,18.00
2023-04-16T03:43:35.120Z,19.02
2023-04-16T03:46:02.575Z,20.27
2023-04-16T03:48:29.958Z,29.15
2023-04-16T03:50:58.278Z,18.52
2023-04-16T03:53:25.742Z,20.45
2023-04-16T03:55:53.260Z,19.17
2023-04-16T03:58:21.966Z,22.60
2023-04-16T04:00:49.313Z,21.00
2023-04-16T04:03:18.558Z,20.58
2023-04-16T04:05:48.565Z,22.67
2023-04-16T04:08:21.355Z,25.75
2023-04-16T04:10:48.671Z,26.02
2023-04-16T04:13:16.188Z,29.92
2023-04-16T04:15:45.028Z,24.38
2023-04-16T04:18:13.419Z,22.35
2023-04-16T04:20:41.365Z,24.80
2023-04-16T04:23:09.203Z,23.70
2023-04-16T04:25:36.861Z,26.50
2023-04-16T04:28:04.515Z,20.88
2023-04-16T04:30:36.054Z,25.23
2023-04-16T04:33:04.149Z,25.98
2023-04-16T04:35:31.561Z,30.60
2023-04-16T04:37:59.718Z,22.92
2023-04-16T04:40:28.496Z,27.33
2023-04-16T04:43:01.024Z,25.95
2023-04-16T04:45:30.364Z,23.98
2023-04-16T04:47:59.406Z,21.92
2023-04-16T04:50:26.793Z,22.88
2023-04-16T04:52:54.040Z,27.85
2023-04-16T04:55:22.484Z,26.58
2023-04-16T04:57:52.222Z,28.50
2023-04-16T05:00:21.256Z,24.58
2023-04-16T05:02:54.008Z,24.55
2023-04-16T05:05:21.784Z,26.33
2023-04-16T05:07:50.581Z,22.73
2023-04-16T05:10:17.915Z,22.63
2023-04-16T05:12:48.918Z,24.92
2023-04-16T05:15:18.884Z,25.80
2023-04-16T05:17:46.466Z,27.23
2023-04-16T05:20:13.858Z,24.05
2023-04-16T05:22:41.448Z,26.00
2023-04-16T05:25:09.308Z,24.52
2023-04-16T05:27:37.536Z,30.77
2023-04-16T05:30:05.886Z,21.75
2023-04-16T05:32:34.471Z,21.08
2023-04-16T05:35:01.683Z,26.33
2023-04-16T05:37:30.537Z,29.13
2023-04-16T05:39:57.893Z,24.23
2023-04-16T05:42:25.172Z,31.95
2023-04-16T05:44:53.352Z,21.35
2023-04-16T05:47:25.805Z,24.63
2023-04-16T05:49:53.212Z,28.85
2023-04-16T05:52:20.711Z,29.20
2023-04-16T05:54:47.990Z,28.48
2023-04-16T05:57:15.879Z,25.20
2023-04-16T05:59:43.321Z,24.85
2023-04-16T06:02:12.019Z,28.10
2023-04-16T06:04:39.451Z,36.00
2023-04-16T06:07:07.508Z,27.25
2023-04-16T06:09:36.212Z,27.25
2023-04-16T06:12:04.001Z,26.92
2023-04-16T06:14:31.205Z,26.55
2023-04-16T06:16:58.481Z,30.77
2023-04-16T06:19:25.750Z,38.42
2023-04-16T06:21:53.813Z,50.95
2023-04-16T06:24:22.761Z,30.73
2023-04-16T06:26:50.215Z,34.15
2023-04-16T06:29:17.510Z,32.95
2023-04-16T06:31:44.954Z,28.25
2023-04-16T06:34:12.570Z,28.25
2023-04-16T06:36:39.857Z,30.17
2023-04-16T06:39:07.190Z,22.70
2023-04-16T06:41:34.640Z,30.50
2023-04-16T06:44:02.027Z,25.95
2023-04-16T06:46:39.979Z,31.13
2023-04-16T06:49:07.623Z,27.45
2023-04-16T06:51:36.157Z,25.98
2023-04-16T06:54:04.308Z,26.00
2023-04-16T06:56:32.290Z,30.10
2023-04-16T06:59:00.971Z,26.85
2023-04-16T07:01:31.116Z,35.75
2023-04-16T07:03:59.324Z,27.55
2023-04-16T07:06:27.210Z,25.88
2023-04-16T07:08:54.432Z,22.77
2023-04-16T07:11:22.471Z,23.90
2023-04-16T07:13:51.211Z,24.80
2023-04-16T07:16:18.760Z,25.80
2023-04-16T07:18:46.538Z,20.58
2023-04-16T07:21:13.991Z,22.65
2023-04-16T07:23:41.811Z,24.55
2023-04-16T07:26:09.172Z,20.95
2023-04-16T07:28:47.842Z,23.92
2023-04-16T07:31:15.218Z,32.22
2023-04-16T07:33:44.573Z,24.35
2023-04-16T07:36:13.199Z,26.40
2023-04-16T07:38:40.593Z,18.77
2023-04-16T07:41:08.428Z,21.08
2023-04-16T07:43:36.104Z,21.30
2023-04-16T07:46:03.440Z,18.02
2023-04-16T07:48:30.718Z,23.80
2023-04-16T07:50:58.598Z,23.73
2023-04-16T07:53:26.068Z,20.98
2023-04-16T07:55:53.814Z,21.50
2023-04-16T07:58:21.178Z,25.10
2023-04-16T08:00:50.379Z,24.02
2023-04-16T08:03:18.497Z,22.05
2023-04-16T08:05:46.043Z,22.38
2023-04-16T08:08:14.421Z,20.80
2023-04-16T08:10:41.950Z,20.58
2023-04-16T08:13:09.702Z,18.58
2023-04-16T08:15:38.119Z,22.85
2023-04-16T08:18:07.093Z,23.75
2023-04-16T08:20:34.595Z,24.60
2023-04-16T08:23:01.804Z,21.15
2023-04-16T08:25:29.337Z,22.35
2023-04-16T08:27:56.664Z,18.08
2023-04-16T08:30:24.094Z,21.27
2023-04-16T08:32:51.635Z,24.13
2023-04-16T08:35:18.911Z,17.77
2023-04-16T08:37:48.312Z,24.25
2023-04-16T08:40:17.655Z,26.83
2023-04-16T08:43:15.582Z,25.60
2023-04-16T08:45:48.617Z,24.40
2023-04-16T08:48:16.276Z,26.00
2023-04-16T08:50:46.778Z,24.70
2023-04-16T08:53:28.531Z,22.95
2023-04-16T08:56:03.765Z,21.98
2023-04-16T08:58:37.962Z,30.00
2023-04-16T09:01:06.863Z,30.70
2023-04-16T09:03:36.677Z,26.67
2023-04-16T09:06:07.515Z,23.13
2023-04-16T09:08:36.229Z,29.40
2023-04-16T09:11:04.858Z,24.60
2023-04-16T09:13:32.769Z,31.00
2023-04-16T09:16:01.210Z,28.67
2023-04-16T09:18:31.107Z,29.05
2023-04-16T09:20:59.608Z,29.13
2023-04-16T09:23:26.932Z,30.30
2023-04-16T09:25:57.107Z,24.90
2023-04-16T09:28:45.932Z,30.67
2023-04-16T09:31:20.431Z,29.67
2023-04-16T09:34:09.665Z,30.38
2023-04-16T09:36:37.326Z,27.52
2023-04-16T09:39:04.753Z,33.45
2023-04-16T09:41:36.280Z,31.83
2023-04-16T09:44:05.715Z,30.23
2023-04-16T09:46:45.192Z,26.77
2023-04-16T09:49:18.888Z,27.45
2023-04-16T09:51:52.802Z,26.40
2023-04-16T09:54:21.364Z,32.08
2023-04-16T09:56:48.703Z,28.13
2023-04-16T09:59:24.406Z,27.58
2023-04-16T10:02:14.583Z,26.25
2023-04-16T10:04:54.885Z,25.77
2023-04-16T10:07:23.344Z,26.40
2023-04-16T10:09:52.601Z,30.42
2023-04-16T10:12:22.275Z,26.77
2023-04-16T10:14:50.433Z,26.23
2023-04-16T10:17:20.395Z,30.45
2023-04-16T10:19:49.900Z,26.92
2023-04-16T10:22:19.636Z,29.20
2023-04-16T10:24:49.818Z,28.25
2023-04-16T10:27:17.256Z,34.03
2023-04-16T10:29:45.935Z,29.40
2023-04-16T10:32:21.895Z,26.73
2023-04-16T10:34:55.822Z,28.17
2023-04-16T10:37:32.320Z,26.33
2023-04-16T10:40:28.178Z,25.10
2023-04-16T10:43:02.002Z,29.23
2023-04-16T10:45:38.577Z,22.27
2023-04-16T10:48:10.197Z,27.77
2023-04-16T10:50:41.530Z,23.70
2023-04-16T10:53:29.775Z,33.33
2023-04-16T10:56:06.488Z,26.67
2023-04-16T10:58:37.228Z,24.88
2023-04-16T11:01:24.428Z,26.13
2023-04-16T11:03:55.168Z,26.20
2023-04-16T11:06:29.567Z,26.23
2023-04-16T11:08:56.932Z,31.52
2023-04-16T11:11:38.608Z,23.83
2023-04-16T11:14:10.936Z,26.40
2023-04-16T11:16:42.602Z,25.27
2023-04-16T11:19:20.431Z,25.27
2023-04-16T11:21:51.694Z,26.42
2023-04-16T11:24:18.971Z,27.92
2023-04-16T11:26:53.944Z,26.25
2023-04-16T11:29:21.458Z,26.25
2023-04-16T11:31:54.035Z,29.33
2023-04-16T11:34:22.766Z,25.13
2023-04-16T11:36:52.449Z,27.17
2023-04-16T11:39:20.010Z,24.40
2023-04-16T11:41:52.504Z,20.98
2023-04-16T11:44:38.354Z,26.38
2023-04-16T11:47:08.341Z,21.98
2023-04-16T11:49:35.720Z,24.05
2023-04-16T11:52:03.030Z,21.40
2023-04-16T11:54:34.877Z,24.63
2023-04-16T11:57:04.800Z,24.95
2023-04-16T11:59:33.374Z,19.85
2023-04-16T12:02:00.819Z,20.00
2023-04-16T12:04:29.447Z,21.77
2023-04-16T12:07:14.630Z,23.13
2023-04-16T12:09:44.975Z,18.83
2023-04-16T12:12:31.664Z,24.10
2023-04-16T12:15:05.398Z,21.65
2023-04-16T12:17:36.389Z,15.75
2023-04-16T12:20:16.230Z,15.80
2023-04-16T12:22:49.666Z,18.08
2023-04-16T12:25:20.647Z,17.88
2023-04-16T12:27:56.407Z,17.63
2023-04-16T12:30:26.834Z,18.33
2023-04-16T12:33:19.679Z,16.90
2023-04-16T12:35:47.392Z,18.48
2023-04-16T12:38:15.509Z,15.85
2023-04-16T12:40:43.207Z,15.65
2023-04-16T12:43:13.817Z,16.48
2023-04-16T12:45:41.668Z,19.33
2023-04-16T12:48:12.031Z,15.43
2023-04-16T12:50:39.803Z,16.98
2023-04-16T12:53:07.265Z,15.02
2023-04-16T12:55:36.058Z,14.88
2023-04-16T12:58:03.848Z,14.70
2023-04-16T13:00:34.263Z,14.15
2023-04-16T13:03:01.801Z,17.65
2023-04-16T13:05:29.450Z,18.83
2023-04-16T13:07:57.280Z,16.02
2023-04-16T13:10:27.896Z,16.00
2023-04-16T13:12:55.476Z,13.82
2023-04-16T13:15:23.456Z,15.95
2023-04-16T13:17:51.400Z,14.15
2023-04-16T13:20:18.704Z,17.40
2023-04-16T13:22:46.211Z,14.32
2023-04-16T13:25:13.420Z,15.13
2023-04-16T13:27:41.386Z,16.38
2023-04-16T13:30:10.638Z,14.27
2023-04-16T13:32:38.774Z,14.60
2023-04-16T13:35:06.528Z,14.82
2023-04-16T13:37:34.955Z,17.42
2023-04-16T13:40:02.413Z,14.90
2023-04-16T13:42:29.752Z,15.52
2023-04-16T13:45:01.348Z,13.02
2023-04-16T13:47:29.166Z,12.45
2023-04-16T13:50:04.584Z,13.88
2023-04-16T13:52:31.862Z,18.08
2023-04-16T13:55:00.634Z,14.93
2023-04-16T13:57:36.443Z,15.07
2023-04-16T14:00:04.674Z,16.52
2023-04-16T14:02:32.262Z,14.50
2023-04-16T14:05:01.542Z,16.95
2023-04-16T14:07:29.223Z,15.63
2023-04-16T14:09:59.183Z,17.88
2023-04-16T14:12:27.643Z,17.15
2023-04-16T14:14:56.487Z,18.58
2023-04-16T14:17:25.493Z,18.08
2023-04-16T14:19:54.740Z,18.65
2023-04-16T14:22:22.525Z,21.90
2023-04-16T14:24:49.800Z,16.85
2023-04-16T14:27:17.277Z,16.80
2023-04-16T14:29:48.055Z,16.95
2023-04-16T14:32:15.339Z,27.75
2023-04-16T14:34:46.806Z,17.38
2023-04-16T14:37:17.934Z,21.83
2023-04-16T14:39:52.413Z,18.27
2023-04-16T14:42:22.438Z,19.10
2023-04-16T14:44:49.828Z,16.80
2023-04-16T14:47:20.164Z,18.90
2023-04-16T14:49:48.164Z,26.45
2023-04-16T14:52:19.781Z,19.75
2023-04-16T14:54:48.616Z,19.30
2023-04-16T14:57:17.150Z,19.25
2023-04-16T14:59:50.828Z,19.00
2023-04-16T15:02:20.061Z,19.30
2023-04-16T15:04:47.744Z,20.98
2023-04-16T15:07:15.172Z,25.63
2023-04-16T15:09:44.089Z,18.02
2023-04-16T15:12:15.314Z,18.10
2023-04-16T15:14:43.776Z,18.48
2023-04-16T15:17:15.422Z,19.65
2023-04-16T15:19:43.745Z,20.80
2023-04-16T15:22:16.011Z,16.95
2023-04-16T15:24:45.020Z,16.90
2023-04-16T15:27:14.190Z,19.08
2023-04-16T15:29:41.670Z,25.33
2023-04-16T15:32:09.611Z,21.52
2023-04-16T15:34:37.917Z,21.20
2023-04-16T15:37:05.319Z,22.35
2023-04-16T15:39:32.667Z,18.58
2023-04-16T15:42:02.273Z,20.48
2023-04-16T15:44:31.551Z,19.85
2023-04-16T15:47:00.232Z,18.63
2023-04-16T15:49:28.790Z,22.20
2023-04-16T15:51:58.588Z,18.63
2023-04-16T15:54:27.151Z,19.60
2023-04-16T15:56:56.601Z,20.42
2023-04-16T15:59:23.948Z,24.38
2023-04-16T16:01:52.792Z,19.17
2023-04-16T16:04:22.822Z,21.05
2023-04-16T16:06:51.114Z,15.10
2023-04-16T16:09:25.680Z,22.58
2023-04-16T16:11:55.493Z,19.85
2023-04-16T16:14:23.350Z,18.33
2023-04-16T16:16:51.749Z,21.77
2023-04-16T16:19:21.662Z,22.75
2023-04-16T16:21:49.472Z,20.35
2023-04-16T16:24:16.732Z,20.95
2023-04-16T16:26:45.628Z,21.27
2023-04-16T16:29:13.083Z,21.30
2023-04-16T16:31:42.052Z,21.00
2023-04-16T16:34:17.090Z,22.00
2023-04-16T16:36:47.961Z,21.88
2023-04-16T16:39:15.277Z,18.10
2023-04-16T16:41:48.216Z,21.17
2023-04-16T16:44:15.664Z,23.35
2023-04-16T16:46:44.095Z,19.92
2023-04-16T16:49:14.590Z,26.33
2023-04-16T16:51:42.408Z,19.45
2023-04-16T16:54:11.028Z,18.42
2023-04-16T16:56:38.429Z,18.52
2023-04-16T16:59:06.257Z,20.35
2023-04-16T17:01:33.820Z,18.23
2023-04-16T17:04:02.798Z,18.52
2023-04-16T17:06:30.457Z,21.15
2023-04-16T17:08:58.650Z,21.75
2023-04-16T17:11:27.214Z,15.50
2023-04-16T17:13:55.938Z,16.90
2023-04-16T17:16:24.540Z,20.85
2023-04-16T17:18:53.008Z,20.90
2023-04-16T17:21:21.643Z,17.45
2023-04-16T17:23:52.066Z,18.70
2023-04-16T17:26:19.282Z,16.85
2023-04-16T17:28:54.405Z,21.20
2023-04-16T17:31:23.127Z,14.07
2023-04-16T17:33:51.195Z,16.98
2023-04-16T17:36:23.018Z,16.38
2023-04-16T17:38:50.616Z,23.58
2023-04-16T17:41:18.161Z,22.50
2023-04-16T17:43:50.116Z,21.10
2023-04-16T17:46:17.516Z,18.27
2023-04-16T17:48:47.939Z,17.20
2023-04-16T17:51:16.604Z,23.02
2023-04-16T17:53:45.373Z,17.30
2023-04-16T17:56:14.556Z,20.45
2023-04-16T17:58:43.340Z,18.60
2023-04-16T18:01:11.362Z,18.08
2023-04-16T18:03:40.244Z,18.10
2023-04-16T18:06:07.773Z,19.92
2023-04-16T18:08:36.935Z,20.35
2023-04-16T18:11:08.813Z,16.42
2023-04-16T18:13:38.220Z,22.52
2023-04-16T18:16:07.478Z,17.73
2023-04-16T18:18:34.878Z,18.05
2023-04-16T18:21:03.128Z,18.50
2023-04-16T18:23:31.666Z,19.58
2023-04-16T18:25:58.929Z,17.25
2023-04-16T18:28:27.686Z,16.42
2023-04-16T18:30:58.751Z,18.25
2023-04-16T18:33:52.273Z,19.65
2023-04-16T18:36:13.971Z,16.45
2023-04-16T18:38:56.917Z,24.45
2023-04-16T18:41:27.192Z,23.30
2023-04-16T18:43:56.976Z,19.40
2023-04-16T18:46:25.153Z,17.80
2023-04-16T18:48:53.337Z,18.90
2023-04-16T18:51:21.312Z,19.48
2023-04-16T18:53:48.789Z,17.92
2023-04-16T18:56:16.109Z,18.95
2023-04-16T18:58:43.979Z,25.23
2023-04-16T19:01:21.191Z,17.45
2023-04-16T19:03:48.664Z,20.60
2023-04-16T19:06:17.800Z,21.48
2023-04-16T19:08:45.183Z,19.45
2023-04-16T19:11:14.236Z,23.15
2023-04-16T19:13:43.421Z,20.73
2023-04-16T19:16:12.594Z,26.02
2023-04-16T19:18:41.065Z,19.13
2023-04-16T19:21:10.869Z,23.52
2023-04-16T19:23:38.990Z,23.85
2023-04-16T19:26:07.501Z,21.50
2023-04-16T19:28:34.860Z,21.55
2023-04-16T19:31:04.229Z,18.83
2023-04-16T19:33:33.199Z,26.88
2023-04-16T19:36:01.727Z,23.10
2023-04-16T19:38:31.839Z,22.55
2023-04-16T19:40:59.108Z,24.90
2023-04-16T19:43:28.003Z,25.95
2023-04-16T19:45:57.568Z,22.02
2023-04-16T19:48:24.965Z,22.15
2023-04-16T19:50:52.246Z,23.40
2023-04-16T19:53:21.834Z,25.17
2023-04-16T19:55:50.739Z,24.33
2023-04-16T19:58:19.018Z,23.63
2023-04-16T20:00:47.276Z,26.85
2023-04-16T20:03:14.634Z,29.08
2023-04-16T20:05:42.024Z,23.00
2023-04-16T20:08:10.382Z,23.52
2023-04-16T20:10:37.672Z,29.45
2023-04-16T20:13:06.592Z,26.58
2023-04-16T20:15:37.941Z,25.48
2023-04-16T20:18:08.731Z,20.60
2023-04-16T20:20:37.897Z,26.63
2023-04-16T20:23:05.706Z,23.25
2023-04-16T20:25:32.966Z,22.52
2023-04-16T20:28:00.337Z,24.42
2023-04-16T20:30:29.436Z,17.42
2023-04-16T20:32:57.300Z,24.77
2023-04-16T20:35:24.614Z,19.63
2023-04-16T20:37:53.337Z,26.67
2023-04-16T20:40:22.504Z,27.05
2023-04-16T20:42:52.098Z,27.88
2023-04-16T20:45:20.963Z,29.80
2023-04-16T20:47:48.272Z,25.33
2023-04-16T20:50:15.883Z,26.80
2023-04-16T20:52:43.216Z,26.25
2023-04-16T20:55:10.836Z,24.20
2023-04-16T20:57:38.099Z,29.70
2023-04-16T21:00:10.083Z,29.55
2023-04-16T21:02:37.899Z,34.47
2023-04-16T21:05:09.001Z,28.15
2023-04-16T21:07:36.305Z,30.63
2023-04-16T21:10:03.791Z,30.70
2023-04-16T21:12:31.309Z,27.52
2023-04-16T21:14:58.546Z,32.53
2023-04-16T21:17:25.760Z,27.58
2023-04-16T21:19:53.132Z,30.42
2023-04-16T21:22:22.034Z,29.08
2023-04-16T21:24:49.745Z,27.33
2023-04-16T21:27:17.042Z,29.88
2023-04-16T21:29:44.282Z,29.17
2023-04-16T21:32:12.028Z,31.77
2023-04-16T21:34:39.254Z,29.15
2023-04-16T21:37:08.520Z,30.52
2023-04-16T21:39:36.006Z,31.90
2023-04-16T21:42:03.299Z,27.45
2023-04-16T21:44:30.648Z,29.98
2023-04-16T21:46:58.059Z,26.25
2023-04-16T21:49:25.835Z,26.98
2023-04-16T21:51:59.018Z,30.70
2023-04-16T21:54:27.518Z,30.52
2023-04-16T21:56:57.070Z,24.30
2023-04-16T21:59:24.307Z,33.60
2023-04-16T22:01:51.647Z,28.10
2023-04-16T22:04:18.997Z,30.02
2023-04-16T22:06:46.323Z,28.73
2023-04-16T22:09:13.664Z,32.35
2023-04-16T22:11:41.097Z,32.08
2023-04-16T22:14:08.813Z,29.50
2023-04-16T22:16:37.025Z,31.15
2023-04-16T22:19:04.334Z,28.58
2023-04-16T22:21:31.738Z,31.05
2023-04-16T22:23:59.212Z,32.38
2023-04-16T22:26:26.568Z,30.75
2023-04-16T22:28:53.790Z,30.58
2023-04-16T22:31:21.138Z,28.80
2023-04-16T22:33:48.462Z,33.20
2023-04-16T22:36:16.014Z,31.52
2023-04-16T22:38:44.308Z,33.30
2023-04-16T22:41:12.053Z,28.33
2023-04-16T22:43:39.491Z,32.95
2023-04-16T22:46:07.982Z,33.58
2023-04-16T22:48:38.156Z,36.80
2023-04-16T22:51:08.671Z,29.77
2023-04-16T22:53:39.125Z,32.63
2023-04-16T22:56:07.762Z,33.75
2023-04-16T22:58:35.141Z,27.15
2023-04-16T23:01:02.465Z,28.67
2023-04-16T23:03:30.641Z,29.95
2023-04-16T23:05:58.060Z,32.22
2023-04-16T23:08:25.357Z,33.13
2023-04-16T23:10:54.565Z,35.10
2023-04-16T23:13:22.249Z,32.72
2023-04-16T23:15:51.048Z,33.65
2023-04-16T23:18:18.383Z,31.13
2023-04-16T23:20:45.787Z,29.15
2023-04-16T23:23:13.258Z,30.88
2023-04-16T23:25:42.065Z,30.67
2023-04-16T23:28:09.705Z,31.63
2023-04-16T23:30:38.078Z,27.02
2023-04-16T23:33:05.497Z,30.77
2023-04-16T23:35:32.821Z,31.08
2023-04-16T23:38:03.065Z,30.50
2023-04-16T23:40:30.854Z,32.90
2023-04-16T23:42:58.067Z,35.28
2023-04-16T23:45:25.840Z,33.75
2023-04-16T23:47:53.162Z,28.25
2023-04-16T23:50:22.366Z,27.25
2023-04-16T23:52:49.903Z,32.13
2023-04-16T23:55:17.263Z,34.42
2023-04-16T23:57:44.509Z,33.05
